Time;durP1;ratioP1;P1;durP2;ratioP2;P2;SDS_P1;SDS_P2;PMS_P1;PMS_P2;Temp;Humidity;BMP_temperature;BMP_pressure;BME280_temperature;BME280_humidity;BME280_pressure;Samples;Min_cycle;Max_cycle;Signal;HPM_P1;HPM_P2
2022/01/15 00:02:29;;;;;;;6.70;6.10;;;10.10;99.90;;;;;;4926474;29;20496;-63
2022/01/15 00:05:00;;;;;;;7.17;6.47;;;10.20;99.90;;;;;;4920119;29;20530;-65
2022/01/15 00:07:31;;;;;;;9.80;6.20;;;10.20;99.90;;;;;;4905638;29;20514;-64
2022/01/15 00:10:01;;;;;;;6.87;6.03;;;10.20;99.90;;;;;;4925991;29;20458;-64
2022/01/15 00:12:39;;;;;;;6.43;5.50;;;10.20;99.90;;;;;;4924448;29;20919;-64
2022/01/15 00:15:15;;;;;;;7.77;6.13;;;10.20;99.90;;;;;;4927074;29;20463;-64
2022/01/15 00:17:56;;;;;;;7.00;5.90;;;10.20;99.90;;;;;;4922085;29;20500;-64
2022/01/15 00:20:27;;;;;;;5.80;5.30;;;10.30;99.90;;;;;;4922240;29;20562;-65
2022/01/15 00:23:00;;;;;;;5.57;5.07;;;10.20;99.90;;;;;;4923024;29;20578;-64
2022/01/15 00:25:33;;;;;;;8.23;4.97;;;10.10;99.90;;;;;;4929283;29;20990;-67
2022/01/15 00:28:05;;;;;;;5.33;4.83;;;9.90;99.90;;;;;;4922398;29;20475;-65
2022/01/15 00:30:38;;;;;;;6.03;5.43;;;9.80;99.90;;;;;;4925498;29;20478;-64
2022/01/15 00:33:11;;;;;;;5.40;5.00;;;9.70;99.90;;;;;;4928919;29;20484;-65
2022/01/15 00:35:42;;;;;;;5.85;5.35;;;9.60;99.90;;;;;;4925347;29;20469;-65
2022/01/15 00:38:13;;;;;;;7.17;6.30;;;9.60;99.90;;;;;;4921200;29;20241;-65
2022/01/15 00:40:43;;;;;;;8.50;7.67;;;9.60;99.90;;;;;;4920311;29;20469;-64
2022/01/15 00:43:14;;;;;;;6.78;5.90;;;9.60;99.90;;;;;;4923319;29;20456;-64
2022/01/15 00:45:46;;;;;;;9.33;7.17;;;9.50;99.90;;;;;;4938918;29;20752;-65
2022/01/15 00:48:20;;;;;;;8.93;7.40;;;9.40;99.90;;;;;;4943365;29;20990;-66
2022/01/15 00:50:52;;;;;;;9.57;7.00;;;9.30;99.90;;;;;;4941256;29;20463;-65
2022/01/15 00:53:23;;;;;;;8.98;7.93;;;9.20;99.90;;;;;;4936877;29;20565;-66
2022/01/15 00:55:54;;;;;;;10.15;7.20;;;9.10;99.90;;;;;;4942599;29;20278;-68
2022/01/15 00:58:25;;;;;;;10.30;8.70;;;9.00;99.90;;;;;;4941876;29;20293;-67
2022/01/15 01:00:56;;;;;;;9.50;8.07;;;8.90;99.90;;;;;;4949589;29;20454;-66
2022/01/15 01:03:29;;;;;;;8.73;7.93;;;9.00;99.90;;;;;;4945190;29;20476;-65
2022/01/15 01:06:00;;;;;;;11.63;9.87;;;9.00;99.90;;;;;;4946812;29;20205;-64
2022/01/15 01:08:31;;;;;;;13.20;9.07;;;8.90;99.90;;;;;;4944994;29;20464;-64
2022/01/15 01:11:10;;;;;;;9.55;8.30;;;8.80;99.90;;;;;;4947395;29;20462;-66
2022/01/15 01:20:03;;;;;;;10.93;8.90;;;8.80;99.90;;;;;;4941095;29;20229;-67
2022/01/15 01:24:56;;;;;;;11.52;9.25;;;8.40;99.90;;;;;;4938090;29;20910;-66
2022/01/15 01:27:30;;;;;;;9.85;8.85;;;8.30;99.90;;;;;;4945545;29;20209;-66
2022/01/15 01:30:13;;;;;;;11.68;9.68;;;8.20;99.90;;;;;;4939767;29;20220;-65
2022/01/15 01:32:52;;;;;;;10.68;9.20;;;8.20;99.90;;;;;;4936295;29;20298;-66
2022/01/15 01:35:36;;;;;;;14.07;10.55;;;8.10;99.90;;;;;;4943033;29;20202;-65
2022/01/15 01:38:26;;;;;;;11.43;9.75;;;8.10;99.90;;;;;;4948821;29;20265;-65
2022/01/15 01:40:59;;;;;;;11.05;9.43;;;8.00;99.90;;;;;;4946532;29;20254;-65
2022/01/15 01:43:49;;;;;;;13.13;10.02;;;7.90;99.90;;;;;;4943474;29;20202;-66
2022/01/15 01:46:33;;;;;;;11.40;9.50;;;7.80;99.90;;;;;;4935887;29;20230;-64
2022/01/15 01:49:05;;;;;;;12.43;9.95;;;7.80;99.90;;;;;;4936389;29;20627;-72
2022/01/15 01:51:41;;;;;;;10.00;8.65;;;7.80;99.90;;;;;;4948440;29;20224;-65
2022/01/15 01:54:16;;;;;;;4.28;3.88;;;7.70;99.90;;;;;;4936836;29;20293;-65
2022/01/15 01:56:48;;;;;;;6.65;5.95;;;7.70;99.90;;;;;;4940119;29;20206;-66
2022/01/15 01:59:19;;;;;;;6.32;5.72;;;7.70;99.90;;;;;;4946524;29;20225;-66
2022/01/15 02:01:51;;;;;;;4.40;3.90;;;7.80;99.90;;;;;;4939263;29;20194;-65
2022/01/15 02:04:23;;;;;;;5.65;4.00;;;7.80;99.90;;;;;;4939424;29;20688;-65
2022/01/15 02:06:55;;;;;;;2.80;2.60;;;7.90;99.90;;;;;;4948655;29;20628;-65
2022/01/15 02:09:27;;;;;;;2.28;2.08;;;7.90;99.90;;;;;;4944032;29;20265;-68
2022/01/15 02:11:57;;;;;;;2.28;2.08;;;7.80;99.90;;;;;;4939346;29;20206;-67
2022/01/15 02:14:30;;;;;;;1.75;1.65;;;7.80;99.90;;;;;;4939545;29;20624;-68
2022/01/15 02:17:01;;;;;;;2.17;1.73;;;7.80;99.90;;;;;;4938937;29;20205;-68
2022/01/15 02:19:44;;;;;;;2.95;2.28;;;7.70;99.90;;;;;;4934406;29;20221;-66
2022/01/15 02:25:14;;;;;;;1.83;1.73;;;7.60;99.90;;;;;;4866753;29;20209;-65
2022/01/15 02:27:45;;;;;;;1.70;1.60;;;7.50;99.90;;;;;;4870240;29;20664;-66
2022/01/15 02:30:16;;;;;;;2.05;1.90;;;7.40;99.90;;;;;;4856420;29;20253;-66
2022/01/15 02:32:47;;;;;;;2.30;1.88;;;7.40;99.90;;;;;;4860796;29;20641;-67
2022/01/15 02:35:20;;;;;;;2.30;2.10;;;7.40;99.90;;;;;;4862553;29;20201;-65
2022/01/15 02:37:51;;;;;;;2.53;2.33;;;7.30;99.90;;;;;;4865998;29;20228;-63
2022/01/15 02:40:22;;;;;;;2.63;2.42;;;7.30;99.90;;;;;;4863508;29;20255;-64
2022/01/15 02:42:52;;;;;;;2.20;2.03;;;7.20;99.90;;;;;;4865787;29;20652;-66
2022/01/15 02:45:26;;;;;;;3.17;2.95;;;7.10;99.90;;;;;;4856380;29;20232;-63
2022/01/15 02:48:02;;;;;;;2.88;2.67;;;7.00;99.90;;;;;;4863292;29;20264;-63
2022/01/15 02:50:35;;;;;;;3.10;2.85;;;7.00;99.90;;;;;;4863082;29;20221;-62
2022/01/15 02:53:06;;;;;;;3.72;3.42;;;7.00;99.90;;;;;;4857777;29;20212;-63
2022/01/15 02:55:41;;;;;;;4.30;3.90;;;6.90;99.90;;;;;;4866353;29;20662;-63
2022/01/15 02:58:12;;;;;;;4.10;3.70;;;6.80;99.90;;;;;;4865255;29;20223;-64
2022/01/15 03:00:43;;;;;;;4.03;3.72;;;6.80;99.90;;;;;;4938459;29;20206;-63
2022/01/15 03:03:15;;;;;;;4.20;3.80;;;6.70;99.90;;;;;;4941052;29;20202;-62
2022/01/15 03:05:47;;;;;;;3.78;3.47;;;6.60;99.90;;;;;;4940806;29;20206;-62
2022/01/15 03:08:21;;;;;;;3.40;3.10;;;6.60;99.90;;;;;;4937603;29;20217;-61
2022/01/15 03:10:52;;;;;;;3.85;3.30;;;6.70;99.90;;;;;;4941291;29;20237;-61
2022/01/15 03:13:23;;;;;;;5.47;3.92;;;6.70;99.90;;;;;;4947065;29;20218;-61
2022/01/15 03:15:56;;;;;;;3.90;3.60;;;6.60;99.90;;;;;;4939984;29;20281;-62
2022/01/15 03:18:27;;;;;;;5.32;3.75;;;6.60;99.90;;;;;;4930997;29;20282;-63
2022/01/15 03:21:00;;;;;;;4.88;3.90;;;6.50;99.90;;;;;;4932085;29;20217;-62
2022/01/15 03:23:31;;;;;;;3.25;2.95;;;6.40;99.90;;;;;;4939684;29;20564;-61
2022/01/15 03:26:02;;;;;;;4.93;4.00;;;6.40;99.90;;;;;;4935787;29;20206;-61
2022/01/15 03:28:33;;;;;;;3.47;3.25;;;6.40;99.90;;;;;;4941411;29;20261;-62
2022/01/15 03:31:04;;;;;;;3.97;3.67;;;6.50;99.90;;;;;;4938340;29;20301;-61
2022/01/15 03:33:35;;;;;;;3.75;3.45;;;6.40;99.90;;;;;;4942781;29;20194;-61
2022/01/15 03:36:11;;;;;;;3.00;2.80;;;6.40;99.90;;;;;;4936656;29;20186;-62
2022/01/15 03:38:42;;;;;;;3.50;3.13;;;6.40;99.90;;;;;;4944730;29;20274;-62
2022/01/15 03:41:18;;;;;;;3.03;2.72;;;6.40;99.90;;;;;;4943151;29;20212;-62
2022/01/15 03:43:49;;;;;;;2.83;2.65;;;6.50;99.90;;;;;;4927949;29;20210;-62
2022/01/15 03:46:22;;;;;;;2.90;2.60;;;6.40;99.90;;;;;;4941152;29;20244;-61
2022/01/15 03:48:53;;;;;;;3.60;3.30;;;6.40;99.90;;;;;;4945422;29;20278;-62
2022/01/15 03:51:25;;;;;;;3.33;3.05;;;6.40;99.90;;;;;;4941636;29;20320;-61
2022/01/15 03:53:56;;;;;;;3.92;3.60;;;6.30;99.90;;;;;;4938139;29;20210;-62
2022/01/15 03:56:33;;;;;;;4.68;4.28;;;6.20;99.90;;;;;;4934988;29;20203;-63
2022/01/15 03:59:04;;;;;;;4.30;3.90;;;6.10;99.90;;;;;;4928310;29;20297;-61
2022/01/15 04:01:43;;;;;;;5.43;4.85;;;6.10;99.90;;;;;;4942527;29;20208;-63
2022/01/15 04:04:15;;;;;;;5.45;4.95;;;6.10;99.90;;;;;;4945909;29;20202;-63
2022/01/15 04:06:47;;;;;;;6.32;5.65;;;6.20;99.90;;;;;;4936967;29;20329;-62
2022/01/15 04:09:19;;;;;;;5.78;5.20;;;6.30;99.90;;;;;;4938168;29;20207;-64
2022/01/15 04:12:06;;;;;;;7.00;6.32;;;6.20;99.90;;;;;;4926844;29;20220;-63
2022/01/15 04:14:38;;;;;;;8.35;7.28;;;6.20;99.90;;;;;;4919781;29;20627;-64
2022/01/15 04:17:13;;;;;;;8.38;6.93;;;6.20;99.90;;;;;;4927178;29;20544;-64
2022/01/15 04:19:44;;;;;;;8.13;7.32;;;6.10;99.90;;;;;;4914736;29;20230;-63
2022/01/15 04:22:22;;;;;;;7.63;6.80;;;6.10;99.90;;;;;;4925916;29;20289;-64
2022/01/15 04:24:55;;;;;;;9.52;8.20;;;6.10;99.90;;;;;;4921037;29;20258;-63
2022/01/15 04:27:26;;;;;;;10.57;9.52;;;6.10;99.90;;;;;;4918489;29;20203;-63
2022/01/15 04:30:03;;;;;;;10.68;9.20;;;6.00;99.90;;;;;;4919628;29;20345;-63
2022/01/15 04:32:34;;;;;;;10.18;8.68;;;6.10;99.90;;;;;;4924883;29;20297;-63
2022/01/15 04:35:07;;;;;;;11.65;10.07;;;6.10;99.90;;;;;;4914323;29;20417;-63
2022/01/15 04:37:52;;;;;;;10.80;9.70;;;6.00;99.90;;;;;;4922987;29;20275;-62
2022/01/15 04:40:23;;;;;;;14.07;12.27;;;5.90;99.90;;;;;;4925529;29;20226;-64
2022/01/15 04:42:54;;;;;;;12.80;11.60;;;5.90;99.90;;;;;;4923679;29;20522;-64
2022/01/15 04:45:26;;;;;;;13.63;12.43;;;5.90;99.90;;;;;;4920477;29;20318;-65
2022/01/15 04:47:57;;;;;;;12.52;11.18;;;5.80;99.90;;;;;;4915439;29;20361;-64
2022/01/15 04:50:28;;;;;;;13.18;11.88;;;5.70;99.90;;;;;;4920798;29;20227;-64
2022/01/15 04:53:01;;;;;;;12.48;11.18;;;5.60;99.90;;;;;;4923505;29;20310;-64
2022/01/15 04:55:33;;;;;;;11.85;10.85;;;5.60;99.90;;;;;;4921616;29;20274;-63
2022/01/15 04:58:04;;;;;;;14.90;11.18;;;5.60;99.90;;;;;;4923975;29;20267;-63
2022/01/15 05:00:36;;;;;;;14.05;12.80;;;5.60;99.90;;;;;;4919470;29;20227;-63
2022/01/15 05:03:07;;;;;;;14.27;12.88;;;5.50;99.90;;;;;;4917278;29;20211;-63
2022/01/15 05:05:38;;;;;;;14.18;12.82;;;5.50;99.90;;;;;;4919822;29;20207;-63
2022/01/15 05:08:12;;;;;;;17.75;14.35;;;5.40;99.90;;;;;;4923395;29;20337;-62
2022/01/15 05:10:47;;;;;;;16.50;14.80;;;5.30;99.90;;;;;;4922576;29;20227;-65
2022/01/15 05:13:22;;;;;;;22.00;18.65;;;5.40;99.90;;;;;;4929431;29;20451;-64
2022/01/15 05:15:53;;;;;;;20.95;18.65;;;5.30;99.90;;;;;;4928851;29;20305;-64
2022/01/15 05:18:24;;;;;;;21.58;19.25;;;5.40;99.90;;;;;;4927798;29;20211;-64
2022/01/15 05:20:56;;;;;;;27.30;22.27;;;5.40;99.90;;;;;;4925552;29;20227;-62
2022/01/15 05:23:29;;;;;;;24.52;19.88;;;5.40;99.90;;;;;;4923295;29;20274;-62
2022/01/15 05:26:00;;;;;;;22.42;20.08;;;5.30;99.90;;;;;;4923572;29;20197;-62
2022/01/15 05:28:31;;;;;;;20.13;17.67;;;5.30;99.90;;;;;;4920105;29;20203;-63
2022/01/15 05:31:01;;;;;;;19.00;17.10;;;5.30;99.90;;;;;;4918814;29;20285;-62
2022/01/15 05:33:47;;;;;;;19.35;17.17;;;5.30;99.90;;;;;;4920847;29;20207;-68
2022/01/15 05:36:18;;;;;;;19.17;15.73;;;5.20;99.90;;;;;;4916961;29;20298;-63
2022/01/15 05:39:01;;;;;;;17.83;15.90;;;5.30;99.90;;;;;;4912900;29;20670;-63
2022/01/15 05:41:31;;;;;;;18.77;15.48;;;5.20;99.90;;;;;;4922128;29;20710;-62
2022/01/15 05:44:03;;;;;;;20.20;18.10;;;5.20;99.90;;;;;;4920426;29;20203;-62
2022/01/15 05:46:35;;;;;;;24.23;16.88;;;5.10;99.90;;;;;;4917482;29;20267;-62
2022/01/15 05:49:06;;;;;;;21.05;16.30;;;5.10;99.90;;;;;;4921818;29;20281;-62
2022/01/15 05:51:37;;;;;;;22.63;17.08;;;5.10;99.90;;;;;;4918180;29;20263;-62
2022/01/15 05:54:11;;;;;;;17.58;15.07;;;5.10;99.90;;;;;;4922683;29;20231;-63
2022/01/15 05:56:55;;;;;;;19.35;16.08;;;5.10;99.90;;;;;;4925562;29;20561;-62
2022/01/15 05:59:26;;;;;;;18.88;14.93;;;5.10;99.90;;;;;;4915453;29;20287;-63
2022/01/15 06:01:57;;;;;;;17.88;14.55;;;5.10;99.90;;;;;;4925174;29;20244;-61
2022/01/15 06:04:28;;;;;;;19.98;15.48;;;5.00;99.90;;;;;;4929135;29;20214;-62
2022/01/15 06:06:59;;;;;;;20.90;17.50;;;5.10;99.90;;;;;;4926003;29;20238;-62
2022/01/15 06:09:46;;;;;;;24.23;19.67;;;5.10;99.90;;;;;;4921709;29;20203;-64
2022/01/15 06:12:17;;;;;;;23.08;17.27;;;5.00;99.90;;;;;;4914079;29;20211;-62
2022/01/15 06:14:48;;;;;;;19.25;17.15;;;5.00;99.90;;;;;;4921426;29;20291;-64
2022/01/15 06:17:19;;;;;;;21.85;17.35;;;4.90;99.90;;;;;;4914201;29;20291;-61
2022/01/15 06:19:50;;;;;;;19.15;17.05;;;4.90;99.90;;;;;;4914963;29;20206;-62
2022/01/15 06:22:21;;;;;;;19.92;17.30;;;4.90;99.90;;;;;;4925730;29;20298;-61
2022/01/15 06:24:53;;;;;;;26.15;18.20;;;4.80;99.90;;;;;;4927207;29;20241;-61
2022/01/15 06:27:29;;;;;;;33.10;17.27;;;4.80;99.90;;;;;;4926729;29;20592;-60
2022/01/15 06:30:01;;;;;;;60.45;18.35;;;4.80;99.90;;;;;;4919248;29;20195;-62
2022/01/15 06:32:36;;;;;;;56.13;18.40;;;4.80;99.90;;;;;;4927974;29;20217;-63
2022/01/15 06:35:09;;;;;;;57.00;19.17;;;4.80;99.90;;;;;;4923537;29;20210;-62
2022/01/15 06:37:40;;;;;;;43.45;20.20;;;4.90;99.90;;;;;;4927294;29;20233;-62
2022/01/15 06:40:13;;;;;;;30.88;18.73;;;4.80;99.90;;;;;;4922873;29;20213;-61
2022/01/15 06:42:45;;;;;;;33.67;17.05;;;4.80;99.90;;;;;;4922851;29;20214;-62
2022/01/15 06:45:16;;;;;;;44.65;20.00;;;4.80;99.90;;;;;;4926182;29;20594;-62
2022/01/15 06:47:47;;;;;;;52.90;19.92;;;4.70;99.90;;;;;;4913622;29;20195;-62
2022/01/15 06:50:17;;;;;;;48.85;20.33;;;4.70;99.90;;;;;;4914473;29;20242;-62
2022/01/15 06:52:48;;;;;;;34.53;16.83;;;4.70;99.90;;;;;;4925083;29;20270;-62
2022/01/15 06:55:22;;;;;;;102.03;20.33;;;4.80;99.90;;;;;;4921548;29;20226;-62
2022/01/15 06:57:53;;;;;;;90.38;19.27;;;4.80;99.90;;;;;;4924329;29;20602;-62
2022/01/15 07:00:25;;;;;;;45.20;16.40;;;4.90;99.90;;;;;;4925807;29;20206;-63
2022/01/15 07:03:00;;;;;;;57.25;18.35;;;4.90;99.90;;;;;;4919305;29;20195;-61
2022/01/15 07:05:31;;;;;;;55.38;17.02;;;5.00;99.90;;;;;;4918903;29;20202;-61
2022/01/15 07:08:02;;;;;;;51.33;17.95;;;5.00;99.90;;;;;;4925163;29;20278;-61
2022/01/15 07:10:38;;;;;;;75.45;18.98;;;5.00;99.90;;;;;;4927120;29;20221;-61
2022/01/15 07:13:10;;;;;;;86.43;19.45;;;5.10;99.90;;;;;;4926723;29;20262;-61
2022/01/15 07:15:41;;;;;;;46.70;17.02;;;5.20;99.90;;;;;;4923048;29;20278;-62
2022/01/15 07:18:12;;;;;;;48.28;15.32;;;5.20;99.90;;;;;;4927816;29;20195;-61
2022/01/15 07:20:42;;;;;;;51.35;15.77;;;5.30;99.90;;;;;;4925043;29;20210;-62
2022/01/15 07:23:13;;;;;;;57.83;17.00;;;5.30;99.90;;;;;;4917807;29;20395;-60
2022/01/15 07:25:46;;;;;;;69.65;17.38;;;5.30;99.90;;;;;;4922622;29;20223;-62
2022/01/15 07:28:18;;;;;;;123.55;18.77;;;5.40;99.90;;;;;;4927020;29;20203;-62
2022/01/15 07:30:49;;;;;;;130.55;21.83;;;5.50;99.90;;;;;;4926176;29;20208;-62
2022/01/15 07:33:20;;;;;;;128.13;21.35;;;5.40;99.90;;;;;;4925164;29;20195;-62
2022/01/15 07:35:51;;;;;;;38.58;15.85;;;5.50;99.90;;;;;;4919259;29;20265;-61
2022/01/15 07:38:22;;;;;;;21.70;13.05;;;5.50;99.90;;;;;;4924942;29;20742;-62
2022/01/15 07:41:01;;;;;;;88.53;19.48;;;5.60;99.90;;;;;;4927227;29;20217;-62
2022/01/15 07:43:32;;;;;;;36.75;15.13;;;5.60;99.90;;;;;;4914761;29;20221;-61
2022/01/15 07:46:03;;;;;;;48.60;14.98;;;5.60;99.90;;;;;;4920422;29;20254;-61
2022/01/15 07:48:34;;;;;;;78.93;15.52;;;5.60;99.90;;;;;;4924027;29;20207;-61
2022/01/15 07:51:05;;;;;;;45.10;14.82;;;5.70;99.90;;;;;;4926133;29;20645;-61
2022/01/15 07:53:36;;;;;;;67.55;17.65;;;5.70;99.90;;;;;;4916968;29;20223;-61
2022/01/15 07:56:08;;;;;;;78.70;18.15;;;5.70;99.90;;;;;;4914152;29;20267;-61
2022/01/15 07:58:39;;;;;;;42.38;13.38;;;5.70;99.90;;;;;;4926480;29;20312;-62
2022/01/15 08:01:10;;;;;;;53.78;14.95;;;5.70;99.90;;;;;;4921520;29;20213;-63
2022/01/15 08:03:42;;;;;;;43.60;14.07;;;5.70;99.90;;;;;;4914526;29;20242;-62
2022/01/15 08:06:14;;;;;;;29.23;12.65;;;5.60;99.90;;;;;;4922315;29;20229;-62
2022/01/15 08:08:45;;;;;;;32.03;14.02;;;5.60;99.90;;;;;;4917381;29;20298;-62
2022/01/15 08:11:17;;;;;;;44.85;14.43;;;5.60;99.90;;;;;;4921066;29;20230;-62
2022/01/15 08:13:48;;;;;;;36.78;13.20;;;5.50;99.90;;;;;;4919191;29;20209;-61
2022/01/15 08:16:19;;;;;;;22.08;12.48;;;5.50;99.90;;;;;;4922336;29;20285;-62
2022/01/15 08:18:50;;;;;;;25.67;13.73;;;5.40;99.90;;;;;;4925516;29;20194;-62
2022/01/15 08:21:21;;;;;;;19.77;11.23;;;5.40;99.90;;;;;;4925741;29;20647;-61
2022/01/15 08:23:52;;;;;;;57.60;14.70;;;5.30;99.90;;;;;;4918175;29;20258;-61
2022/01/15 08:26:24;;;;;;;29.90;12.88;;;5.40;99.90;;;;;;4922653;29;20211;-61
2022/01/15 08:28:56;;;;;;;37.58;12.35;;;5.30;99.90;;;;;;4923567;29;20215;-61
2022/01/15 08:31:27;;;;;;;22.45;12.35;;;5.30;99.90;;;;;;4915277;29;20266;-61
2022/01/15 08:34:01;;;;;;;27.77;13.95;;;5.30;99.90;;;;;;4920970;29;20199;-61
2022/01/15 08:36:36;;;;;;;19.95;12.52;;;5.20;99.90;;;;;;4922917;29;20219;-61
2022/01/15 08:39:08;;;;;;;23.50;12.73;;;5.10;99.90;;;;;;4912295;29;20613;-61
2022/01/15 08:41:40;;;;;;;11.88;10.30;;;5.10;99.90;;;;;;4926459;29;20236;-61
2022/01/15 08:44:12;;;;;;;20.15;12.23;;;5.00;99.90;;;;;;4913496;29;20266;-61
2022/01/15 08:46:43;;;;;;;11.73;7.90;;;4.90;99.90;;;;;;4919479;29;20419;-61
2022/01/15 08:49:14;;;;;;;7.38;5.85;;;4.90;99.90;;;;;;4925591;29;20219;-62
2022/01/15 08:51:45;;;;;;;6.55;5.78;;;4.80;99.90;;;;;;4927359;29;20202;-61
2022/01/15 08:54:16;;;;;;;9.57;7.00;;;4.80;99.90;;;;;;4928432;29;20205;-61
2022/01/15 08:56:49;;;;;;;7.57;5.82;;;4.80;99.90;;;;;;4930271;29;20298;-62
2022/01/15 08:59:20;;;;;;;7.40;6.70;;;4.70;99.90;;;;;;4926433;29;20237;-61
2022/01/15 09:01:51;;;;;;;9.43;8.25;;;4.80;99.90;;;;;;4925991;29;20217;-62
2022/01/15 09:04:23;;;;;;;9.38;7.68;;;4.70;99.90;;;;;;4928002;29;20643;-62
2022/01/15 09:06:54;;;;;;;9.60;7.88;;;4.70;99.90;;;;;;4929885;29;20293;-62
2022/01/15 09:09:25;;;;;;;7.70;6.53;;;4.60;99.90;;;;;;4928724;29;20202;-62
2022/01/15 09:11:58;;;;;;;6.85;5.85;;;4.50;99.90;;;;;;4925807;29;20277;-61
2022/01/15 09:14:29;;;;;;;6.82;6.00;;;4.50;99.90;;;;;;4922605;29;20250;-62
2022/01/15 09:17:02;;;;;;;6.13;4.93;;;4.50;99.90;;;;;;4929805;29;20277;-62
2022/01/15 09:19:33;;;;;;;4.57;4.18;;;4.50;99.90;;;;;;4916352;29;20286;-62
2022/01/15 09:22:10;;;;;;;4.90;4.40;;;4.50;99.90;;;;;;4922394;29;20233;-62
2022/01/15 09:24:46;;;;;;;5.38;4.18;;;4.50;99.90;;;;;;4923925;29;20241;-63
2022/01/15 09:30:15;;;;;;;4.78;4.38;;;4.40;99.90;;;;;;4919734;29;20202;-62
2022/01/15 09:32:49;;;;;;;5.03;4.32;;;4.50;99.90;;;;;;4924924;29;20270;-63
2022/01/15 09:35:25;;;;;;;3.75;3.35;;;4.50;99.90;;;;;;4924777;29;20203;-62
2022/01/15 09:37:56;;;;;;;4.25;3.95;;;4.40;99.90;;;;;;4916376;29;20204;-62
2022/01/15 09:40:30;;;;;;;3.92;3.53;;;4.40;99.90;;;;;;4926731;29;20275;-62
2022/01/15 09:43:02;;;;;;;4.75;3.90;;;4.40;99.90;;;;;;4921797;29;20294;-62
2022/01/15 09:45:35;;;;;;;4.50;4.10;;;4.30;99.90;;;;;;4922836;29;20390;-63
2022/01/15 09:48:11;;;;;;;4.93;4.15;;;4.30;99.90;;;;;;4927942;29;20270;-62
2022/01/15 09:50:44;;;;;;;4.47;4.00;;;4.30;99.90;;;;;;4921036;29;20204;-63
2022/01/15 09:53:17;;;;;;;4.30;3.90;;;4.30;99.90;;;;;;4922305;29;20242;-63
2022/01/15 09:55:48;;;;;;;4.30;3.85;;;4.30;99.90;;;;;;4919404;29;20237;-62
2022/01/15 09:58:20;;;;;;;4.32;3.80;;;4.40;99.90;;;;;;4927168;29;20232;-62
2022/01/15 10:00:51;;;;;;;3.67;3.13;;;4.40;99.90;;;;;;4925122;29;20225;-62
2022/01/15 10:03:22;;;;;;;4.30;3.83;;;4.40;99.90;;;;;;4926360;29;20238;-63
2022/01/15 10:05:53;;;;;;;4.35;3.92;;;4.50;99.90;;;;;;4923862;29;20226;-63
2022/01/15 10:08:25;;;;;;;4.20;3.80;;;4.40;99.90;;;;;;4920407;29;20199;-62
2022/01/15 10:10:58;;;;;;;4.63;4.00;;;4.40;99.90;;;;;;4923731;29;20203;-63
2022/01/15 10:13:32;;;;;;;4.40;4.00;;;4.30;99.90;;;;;;4919949;29;20222;-63
2022/01/15 10:16:17;;;;;;;4.00;3.60;;;4.30;99.90;;;;;;4926245;29;20546;-62
2022/01/15 10:18:48;;;;;;;4.75;4.35;;;4.20;99.90;;;;;;4920447;29;20233;-63
2022/01/15 10:21:22;;;;;;;4.10;3.78;;;4.20;99.90;;;;;;4925373;29;20203;-63
2022/01/15 10:23:55;;;;;;;4.22;3.83;;;4.10;99.90;;;;;;4924232;29;20304;-62
2022/01/15 10:26:28;;;;;;;4.85;4.35;;;4.10;99.90;;;;;;4928546;29;20203;-63
2022/01/15 10:29:03;;;;;;;5.10;4.50;;;4.00;99.90;;;;;;4924613;29;20250;-63
2022/01/15 10:31:41;;;;;;;6.25;4.55;;;4.00;99.90;;;;;;4921294;29;20237;-63
2022/01/15 10:34:27;;;;;;;5.43;4.93;;;3.90;99.90;;;;;;4919384;29;20720;-63
2022/01/15 10:37:08;;;;;;;6.05;5.45;;;3.90;99.90;;;;;;4920977;29;20222;-62
2022/01/15 10:39:38;;;;;;;6.55;5.82;;;3.80;99.90;;;;;;4927061;29;20258;-63
2022/01/15 10:42:19;;;;;;;7.82;6.90;;;3.90;99.90;;;;;;4928088;29;20194;-63
2022/01/15 10:44:52;;;;;;;10.23;7.13;;;3.90;99.90;;;;;;4923826;29;20241;-63
2022/01/15 10:47:25;;;;;;;9.82;8.45;;;3.80;99.90;;;;;;4924363;29;20303;-62
2022/01/15 10:50:02;;;;;;;9.88;7.50;;;3.80;99.90;;;;;;4922463;29;20218;-63
2022/01/15 10:52:33;;;;;;;8.05;7.25;;;3.80;99.90;;;;;;4917141;29;20225;-62
2022/01/15 10:55:09;;;;;;;10.55;7.78;;;3.80;99.90;;;;;;4923514;29;20206;-62
2022/01/15 10:57:43;;;;;;;9.60;8.18;;;3.70;99.90;;;;;;4926407;29;20290;-63
2022/01/15 11:00:19;;;;;;;14.90;8.98;;;3.80;99.90;;;;;;4926814;29;20195;-62
2022/01/15 11:02:52;;;;;;;10.57;9.23;;;3.90;99.90;;;;;;4922167;29;20310;-62
2022/01/15 11:05:34;;;;;;;12.27;9.50;;;3.80;99.90;;;;;;4919384;29;20211;-62
2022/01/15 11:08:08;;;;;;;13.05;10.57;;;3.90;99.90;;;;;;4921005;29;20341;-62
2022/01/15 11:10:41;;;;;;;14.48;10.40;;;4.00;99.90;;;;;;4926603;29;20274;-62
2022/01/15 11:13:14;;;;;;;22.42;12.00;;;4.10;99.90;;;;;;4920830;29;20205;-62
2022/01/15 11:15:49;;;;;;;22.13;13.82;;;4.20;99.90;;;;;;4922325;29;20219;-62
2022/01/15 11:18:22;;;;;;;28.40;13.77;;;4.30;99.90;;;;;;4920066;29;20307;-63
2022/01/15 11:20:54;;;;;;;47.42;17.30;;;4.40;99.90;;;;;;4924755;29;20210;-62
2022/01/15 11:23:27;;;;;;;43.72;17.05;;;4.50;99.90;;;;;;4913890;29;20238;-63
2022/01/15 11:25:59;;;;;;;35.70;14.48;;;4.60;99.90;;;;;;4923481;29;20209;-63
2022/01/15 11:28:33;;;;;;;28.95;14.60;;;4.60;99.90;;;;;;4925731;29;20226;-62
2022/01/15 11:31:08;;;;;;;33.20;14.75;;;4.70;99.90;;;;;;4926791;29;20237;-63
2022/01/15 11:33:41;;;;;;;51.53;15.60;;;4.70;99.90;;;;;;4916576;29;20226;-63
2022/01/15 11:36:30;;;;;;;26.70;13.10;;;4.80;99.90;;;;;;4926569;29;20374;-62
2022/01/15 11:39:03;;;;;;;31.55;13.18;;;4.80;99.90;;;;;;4917111;29;20199;-62
2022/01/15 11:41:44;;;;;;;19.95;11.98;;;4.80;99.90;;;;;;4922844;29;20214;-63
2022/01/15 11:44:18;;;;;;;22.67;13.15;;;4.90;99.90;;;;;;4919308;29;20373;-63
2022/01/15 11:46:52;;;;;;;21.90;13.07;;;4.90;99.90;;;;;;4926433;29;20325;-62
2022/01/15 11:49:41;;;;;;;34.53;13.85;;;5.00;99.90;;;;;;4926434;29;20678;-62
2022/01/15 11:52:35;;;;;;;41.63;16.70;;;5.00;99.90;;;;;;4919832;29;20222;-62
2022/01/15 11:55:18;;;;;;;35.95;14.57;;;5.00;99.90;;;;;;4925325;29;20206;-62
2022/01/15 11:57:52;;;;;;;32.83;14.82;;;5.00;99.90;;;;;;4920676;29;20221;-62
2022/01/15 12:00:34;;;;;;;59.03;16.38;;;5.10;99.90;;;;;;4922542;29;20719;-62
2022/01/15 12:03:14;;;;;;;23.13;14.23;;;5.10;99.90;;;;;;4922057;29;20236;-62
2022/01/15 12:06:00;;;;;;;21.67;13.10;;;5.10;99.90;;;;;;4925261;29;20230;-63
2022/01/15 12:08:33;;;;;;;22.52;13.25;;;5.00;99.90;;;;;;4925381;29;20278;-63
2022/01/15 12:11:07;;;;;;;20.42;13.18;;;5.00;99.90;;;;;;4923790;29;20309;-62
2022/01/15 12:13:51;;;;;;;20.38;11.73;;;5.00;99.90;;;;;;4923898;29;20274;-62
2022/01/15 12:16:36;;;;;;;31.83;14.85;;;5.00;99.90;;;;;;4919009;29;20203;-62
2022/01/15 12:19:10;;;;;;;27.20;13.32;;;5.10;99.90;;;;;;4921045;29;20250;-62
2022/01/15 12:21:58;;;;;;;53.90;16.73;;;5.10;99.90;;;;;;4922567;29;20621;-62
2022/01/15 12:24:54;;;;;;;35.58;13.77;;;5.20;99.90;;;;;;4924631;29;20222;-63
2022/01/15 12:27:30;;;;;;;34.58;13.98;;;5.20;99.90;;;;;;4923068;29;20204;-62
2022/01/15 12:30:06;;;;;;;50.47;15.30;;;5.20;99.90;;;;;;4920473;29;20262;-62
2022/01/15 12:32:40;;;;;;;45.67;14.80;;;5.30;99.90;;;;;;4926120;29;20258;-62
2022/01/15 12:35:20;;;;;;;96.72;21.80;;;5.40;99.90;;;;;;4922332;29;20199;-62
2022/01/15 12:37:59;;;;;;;45.55;13.32;;;5.30;99.90;;;;;;4927005;29;20206;-62
2022/01/15 12:40:32;;;;;;;30.35;13.57;;;5.30;99.90;;;;;;4910899;29;20217;-62
2022/01/15 12:43:04;;;;;;;20.48;11.35;;;5.30;99.90;;;;;;4919142;29;20283;-62
2022/01/15 12:45:36;;;;;;;45.97;14.60;;;5.40;99.90;;;;;;4918258;29;20242;-63
2022/01/15 12:48:09;;;;;;;28.73;14.25;;;5.30;99.90;;;;;;4925915;29;20266;-63
2022/01/15 12:50:51;;;;;;;24.80;12.82;;;5.40;99.90;;;;;;4912876;29;20207;-63
2022/01/15 12:53:23;;;;;;;34.45;14.20;;;5.30;99.90;;;;;;4925963;29;20202;-63
2022/01/15 12:55:54;;;;;;;32.95;14.02;;;5.30;99.90;;;;;;4925517;29;20274;-62
2022/01/15 12:58:27;;;;;;;25.08;13.32;;;5.40;99.90;;;;;;4926632;29;20203;-62
2022/01/15 13:00:58;;;;;;;18.27;11.82;;;5.40;99.90;;;;;;4911206;29;20963;-63
2022/01/15 13:03:29;;;;;;;18.40;12.55;;;5.40;99.90;;;;;;4922828;29;20219;-62
2022/01/15 13:06:04;;;;;;;18.17;11.75;;;5.40;99.90;;;;;;4915037;29;20222;-62
2022/01/15 13:08:41;;;;;;;25.52;12.07;;;5.40;99.90;;;;;;4920957;29;20210;-62
2022/01/15 13:11:20;;;;;;;28.55;13.20;;;5.30;99.90;;;;;;4926442;29;20238;-63
2022/01/15 13:13:54;;;;;;;26.23;11.57;;;5.20;99.90;;;;;;4921700;29;20211;-62
2022/01/15 13:16:26;;;;;;;45.20;13.13;;;5.20;99.90;;;;;;4923805;29;20264;-62
2022/01/15 13:19:02;;;;;;;25.63;11.60;;;5.20;99.90;;;;;;4916514;29;20284;-63
2022/01/15 13:21:36;;;;;;;15.85;11.55;;;5.10;99.90;;;;;;4918896;29;20210;-63
2022/01/15 13:24:11;;;;;;;25.85;12.05;;;5.10;99.90;;;;;;4913588;29;20557;-62
2022/01/15 13:26:45;;;;;;;27.05;14.10;;;5.20;99.90;;;;;;4919390;29;20206;-62
2022/01/15 13:29:19;;;;;;;22.80;12.45;;;5.20;99.90;;;;;;4917038;29;20245;-62
2022/01/15 13:31:55;;;;;;;24.52;12.23;;;5.10;99.90;;;;;;4924577;29;20207;-62
2022/01/15 13:34:29;;;;;;;32.90;13.43;;;5.10;99.90;;;;;;4916103;29;20265;-63